sensor_id;sensor_type;location;lat;lon;timestamp;P1;durP1;ratioP1;P2;durP2;ratioP2
74415;SDS011;62850;42.428;25.618;2023-04-30T00:02:14;5.35;;;2.95;;
74415;SDS011;62850;42.428;25.618;2023-04-30T00:04:40;7.45;;;2.88;;
74415;SDS011;62850;42.428;25.618;2023-04-30T00:07:05;9.10;;;2.88;;
74415;SDS011;62850;42.428;25.618;2023-04-30T00:09:31;4.47;;;2.30;;
74415;SDS011;62850;42.428;25.618;2023-04-30T00:11:56;4.65;;;2.35;;
74415;SDS011;62850;42.428;25.618;2023-04-30T00:14:22;7.65;;;2.58;;
74415;SDS011;62850;42.428;25.618;2023-04-30T00:16:47;4.50;;;2.33;;
74415;SDS011;62850;42.428;25.618;2023-04-30T00:19:13;6.00;;;2.47;;
74415;SDS011;62850;42.428;25.618;2023-04-30T00:21:38;6.63;;;3.00;;
74415;SDS011;62850;42.428;25.618;2023-04-30T00:24:04;4.57;;;2.50;;
74415;SDS011;62850;42.428;25.618;2023-04-30T00:26:29;5.43;;;2.80;;
74415;SDS011;62850;42.428;25.618;2023-04-30T00:28:55;4.72;;;2.47;;
74415;SDS011;62850;42.428;25.618;2023-04-30T00:31:20;5.80;;;2.67;;
74415;SDS011;62850;42.428;25.618;2023-04-30T00:33:46;5.28;;;2.65;;
74415;SDS011;62850;42.428;25.618;2023-04-30T00:36:11;6.75;;;2.80;;
74415;SDS011;62850;42.428;25.618;2023-04-30T00:38:37;8.43;;;2.60;;
74415;SDS011;62850;42.428;25.618;2023-04-30T00:41:04;6.50;;;2.67;;
74415;SDS011;62850;42.428;25.618;2023-04-30T00:43:29;7.80;;;3.13;;
74415;SDS011;62850;42.428;25.618;2023-04-30T00:45:55;5.20;;;2.50;;
74415;SDS011;62850;42.428;25.618;2023-04-30T00:48:22;4.72;;;2.67;;
74415;SDS011;62850;42.428;25.618;2023-04-30T00:50:48;4.95;;;2.55;;
74415;SDS011;62850;42.428;25.618;2023-04-30T00:53:14;5.40;;;2.15;;
74415;SDS011;62850;42.428;25.618;2023-04-30T00:55:40;4.65;;;2.20;;
74415;SDS011;62850;42.428;25.618;2023-04-30T00:58:08;6.75;;;3.10;;
74415;SDS011;62850;42.428;25.618;2023-04-30T01:00:33;5.82;;;2.85;;
74415;SDS011;62850;42.428;25.618;2023-04-30T01:02:59;6.25;;;2.50;;
74415;SDS011;62850;42.428;25.618;2023-04-30T01:05:25;8.45;;;2.63;;
74415;SDS011;62850;42.428;25.618;2023-04-30T01:07:50;4.78;;;2.65;;
74415;SDS011;62850;42.428;25.618;2023-04-30T01:10:17;5.60;;;2.60;;
74415;SDS011;62850;42.428;25.618;2023-04-30T01:15:32;5.38;;;2.60;;
74415;SDS011;62850;42.428;25.618;2023-04-30T01:18:12;6.53;;;2.75;;
74415;SDS011;62850;42.428;25.618;2023-04-30T01:20:42;4.05;;;2.22;;
74415;SDS011;62850;42.428;25.618;2023-04-30T01:23:17;6.00;;;2.33;;
74415;SDS011;62850;42.428;25.618;2023-04-30T01:28:31;5.57;;;2.50;;
74415;SDS011;62850;42.428;25.618;2023-04-30T01:31:00;5.20;;;2.60;;
74415;SDS011;62850;42.428;25.618;2023-04-30T01:33:25;4.72;;;2.60;;
74415;SDS011;62850;42.428;25.618;2023-04-30T01:41:09;6.43;;;2.50;;
74415;SDS011;62850;42.428;25.618;2023-04-30T01:46:30;6.05;;;2.70;;
74415;SDS011;62850;42.428;25.618;2023-04-30T01:51:46;5.43;;;2.60;;
74415;SDS011;62850;42.428;25.618;2023-04-30T01:54:20;5.57;;;2.58;;
74415;SDS011;62850;42.428;25.618;2023-04-30T01:59:32;5.75;;;2.63;;
74415;SDS011;62850;42.428;25.618;2023-04-30T02:04:25;5.38;;;2.50;;
74415;SDS011;62850;42.428;25.618;2023-04-30T02:06:50;5.75;;;2.75;;
74415;SDS011;62850;42.428;25.618;2023-04-30T02:09:16;4.50;;;2.70;;
74415;SDS011;62850;42.428;25.618;2023-04-30T02:11:42;6.00;;;3.00;;
74415;SDS011;62850;42.428;25.618;2023-04-30T02:14:07;5.85;;;2.90;;
74415;SDS011;62850;42.428;25.618;2023-04-30T02:16:33;5.78;;;2.90;;
74415;SDS011;62850;42.428;25.618;2023-04-30T02:18:58;5.40;;;2.80;;
74415;SDS011;62850;42.428;25.618;2023-04-30T02:21:23;7.20;;;2.72;;
74415;SDS011;62850;42.428;25.618;2023-04-30T02:23:49;6.82;;;2.90;;
74415;SDS011;62850;42.428;25.618;2023-04-30T02:26:15;6.70;;;3.03;;
74415;SDS011;62850;42.428;25.618;2023-04-30T02:28:40;6.43;;;3.28;;
74415;SDS011;62850;42.428;25.618;2023-04-30T02:31:06;7.93;;;3.30;;
74415;SDS011;62850;42.428;25.618;2023-04-30T02:33:32;9.02;;;3.33;;
74415;SDS011;62850;42.428;25.618;2023-04-30T02:35:58;6.15;;;3.30;;
74415;SDS011;62850;42.428;25.618;2023-04-30T02:38:24;6.82;;;3.05;;
74415;SDS011;62850;42.428;25.618;2023-04-30T02:40:49;8.30;;;3.33;;
74415;SDS011;62850;42.428;25.618;2023-04-30T02:43:15;7.95;;;2.80;;
74415;SDS011;62850;42.428;25.618;2023-04-30T02:45:41;5.20;;;2.75;;
74415;SDS011;62850;42.428;25.618;2023-04-30T02:48:06;5.45;;;2.95;;
74415;SDS011;62850;42.428;25.618;2023-04-30T02:50:31;4.60;;;2.58;;
74415;SDS011;62850;42.428;25.618;2023-04-30T02:52:57;6.80;;;2.67;;
74415;SDS011;62850;42.428;25.618;2023-04-30T02:55:22;6.78;;;2.97;;
74415;SDS011;62850;42.428;25.618;2023-04-30T02:57:48;6.90;;;3.13;;
74415;SDS011;62850;42.428;25.618;2023-04-30T03:00:13;6.25;;;2.83;;
74415;SDS011;62850;42.428;25.618;2023-04-30T03:02:39;7.00;;;2.95;;
74415;SDS011;62850;42.428;25.618;2023-04-30T03:05:05;9.70;;;3.17;;
74415;SDS011;62850;42.428;25.618;2023-04-30T03:07:30;10.40;;;3.47;;
74415;SDS011;62850;42.428;25.618;2023-04-30T03:09:56;8.82;;;4.47;;
74415;SDS011;62850;42.428;25.618;2023-04-30T03:12:21;9.43;;;3.40;;
74415;SDS011;62850;42.428;25.618;2023-04-30T03:14:47;8.40;;;3.08;;
74415;SDS011;62850;42.428;25.618;2023-04-30T03:17:12;7.18;;;3.20;;
74415;SDS011;62850;42.428;25.618;2023-04-30T03:19:38;5.90;;;3.70;;
74415;SDS011;62850;42.428;25.618;2023-04-30T03:22:03;7.65;;;3.60;;
74415;SDS011;62850;42.428;25.618;2023-04-30T03:24:29;6.25;;;3.33;;
74415;SDS011;62850;42.428;25.618;2023-04-30T03:26:55;7.70;;;3.70;;
74415;SDS011;62850;42.428;25.618;2023-04-30T03:29:20;6.55;;;4.03;;
74415;SDS011;62850;42.428;25.618;2023-04-30T03:31:46;8.93;;;4.60;;
74415;SDS011;62850;42.428;25.618;2023-04-30T03:34:11;11.65;;;4.68;;
74415;SDS011;62850;42.428;25.618;2023-04-30T03:36:36;10.60;;;5.00;;
74415;SDS011;62850;42.428;25.618;2023-04-30T03:39:02;9.30;;;4.30;;
74415;SDS011;62850;42.428;25.618;2023-04-30T03:41:28;11.50;;;5.25;;
74415;SDS011;62850;42.428;25.618;2023-04-30T03:43:53;9.07;;;5.20;;
74415;SDS011;62850;42.428;25.618;2023-04-30T03:46:19;7.18;;;4.00;;
74415;SDS011;62850;42.428;25.618;2023-04-30T03:48:45;7.97;;;4.70;;
74415;SDS011;62850;42.428;25.618;2023-04-30T03:51:10;7.68;;;3.92;;
74415;SDS011;62850;42.428;25.618;2023-04-30T03:53:36;7.00;;;4.32;;
74415;SDS011;62850;42.428;25.618;2023-04-30T03:56:01;8.25;;;4.68;;
74415;SDS011;62850;42.428;25.618;2023-04-30T03:58:28;8.18;;;4.30;;
74415;SDS011;62850;42.428;25.618;2023-04-30T04:00:54;9.48;;;4.47;;
74415;SDS011;62850;42.428;25.618;2023-04-30T04:03:20;6.68;;;4.18;;
74415;SDS011;62850;42.428;25.618;2023-04-30T04:05:46;9.88;;;4.57;;
74415;SDS011;62850;42.428;25.618;2023-04-30T04:08:12;8.77;;;4.13;;
74415;SDS011;62850;42.428;25.618;2023-04-30T04:10:38;9.75;;;4.55;;
74415;SDS011;62850;42.428;25.618;2023-04-30T04:13:07;8.88;;;4.30;;
74415;SDS011;62850;42.428;25.618;2023-04-30T04:15:32;8.52;;;4.85;;
74415;SDS011;62850;42.428;25.618;2023-04-30T04:17:58;8.60;;;4.63;;
74415;SDS011;62850;42.428;25.618;2023-04-30T04:20:24;10.15;;;5.72;;
74415;SDS011;62850;42.428;25.618;2023-04-30T04:22:49;11.20;;;6.00;;
74415;SDS011;62850;42.428;25.618;2023-04-30T04:25:15;10.20;;;5.28;;
74415;SDS011;62850;42.428;25.618;2023-04-30T04:27:42;7.88;;;5.18;;
74415;SDS011;62850;42.428;25.618;2023-04-30T04:30:08;11.55;;;5.18;;
74415;SDS011;62850;42.428;25.618;2023-04-30T04:32:33;10.40;;;4.80;;
74415;SDS011;62850;42.428;25.618;2023-04-30T04:35:11;11.95;;;5.05;;
74415;SDS011;62850;42.428;25.618;2023-04-30T04:37:38;8.98;;;4.53;;
74415;SDS011;62850;42.428;25.618;2023-04-30T04:40:03;14.80;;;4.80;;
74415;SDS011;62850;42.428;25.618;2023-04-30T04:42:29;8.88;;;4.55;;
74415;SDS011;62850;42.428;25.618;2023-04-30T04:44:58;9.65;;;4.15;;
74415;SDS011;62850;42.428;25.618;2023-04-30T04:47:24;9.38;;;4.30;;
74415;SDS011;62850;42.428;25.618;2023-04-30T04:49:50;9.35;;;4.68;;
74415;SDS011;62850;42.428;25.618;2023-04-30T04:52:16;9.43;;;5.07;;
74415;SDS011;62850;42.428;25.618;2023-04-30T04:54:41;9.40;;;4.95;;
74415;SDS011;62850;42.428;25.618;2023-04-30T04:57:07;10.05;;;4.35;;
74415;SDS011;62850;42.428;25.618;2023-04-30T04:59:32;10.68;;;5.00;;
74415;SDS011;62850;42.428;25.618;2023-04-30T05:01:58;11.27;;;5.95;;
74415;SDS011;62850;42.428;25.618;2023-04-30T05:04:23;10.13;;;5.78;;
74415;SDS011;62850;42.428;25.618;2023-04-30T05:06:49;10.43;;;6.43;;
74415;SDS011;62850;42.428;25.618;2023-04-30T05:09:14;18.00;;;9.50;;
74415;SDS011;62850;42.428;25.618;2023-04-30T05:11:40;13.48;;;6.25;;
74415;SDS011;62850;42.428;25.618;2023-04-30T05:14:06;12.27;;;6.15;;
74415;SDS011;62850;42.428;25.618;2023-04-30T05:16:32;10.93;;;5.60;;
74415;SDS011;62850;42.428;25.618;2023-04-30T05:18:57;9.23;;;5.32;;
74415;SDS011;62850;42.428;25.618;2023-04-30T05:21:22;10.98;;;5.78;;
74415;SDS011;62850;42.428;25.618;2023-04-30T05:23:50;15.60;;;5.90;;
74415;SDS011;62850;42.428;25.618;2023-04-30T05:26:15;13.77;;;6.53;;
74415;SDS011;62850;42.428;25.618;2023-04-30T05:28:41;13.43;;;6.85;;
74415;SDS011;62850;42.428;25.618;2023-04-30T05:31:06;8.95;;;5.65;;
74415;SDS011;62850;42.428;25.618;2023-04-30T05:33:32;9.07;;;6.13;;
74415;SDS011;62850;42.428;25.618;2023-04-30T05:35:57;12.23;;;5.72;;
74415;SDS011;62850;42.428;25.618;2023-04-30T05:38:23;7.85;;;5.32;;
74415;SDS011;62850;42.428;25.618;2023-04-30T05:40:49;12.52;;;5.75;;
74415;SDS011;62850;42.428;25.618;2023-04-30T05:43:14;10.65;;;6.10;;
74415;SDS011;62850;42.428;25.618;2023-04-30T05:45:40;8.98;;;5.45;;
74415;SDS011;62850;42.428;25.618;2023-04-30T05:48:05;10.45;;;5.22;;
74415;SDS011;62850;42.428;25.618;2023-04-30T05:50:31;12.57;;;6.20;;
74415;SDS011;62850;42.428;25.618;2023-04-30T05:52:56;16.75;;;13.13;;
74415;SDS011;62850;42.428;25.618;2023-04-30T05:55:21;11.70;;;6.35;;
74415;SDS011;62850;42.428;25.618;2023-04-30T05:57:47;11.82;;;7.13;;
74415;SDS011;62850;42.428;25.618;2023-04-30T06:00:13;9.35;;;5.63;;
74415;SDS011;62850;42.428;25.618;2023-04-30T06:02:39;9.52;;;5.13;;
74415;SDS011;62850;42.428;25.618;2023-04-30T06:05:06;11.55;;;5.18;;
74415;SDS011;62850;42.428;25.618;2023-04-30T06:07:32;7.93;;;4.80;;
74415;SDS011;62850;42.428;25.618;2023-04-30T06:09:57;8.55;;;5.15;;
74415;SDS011;62850;42.428;25.618;2023-04-30T06:12:23;11.93;;;5.70;;
74415;SDS011;62850;42.428;25.618;2023-04-30T06:14:48;11.15;;;6.15;;
74415;SDS011;62850;42.428;25.618;2023-04-30T06:17:14;14.07;;;6.32;;
74415;SDS011;62850;42.428;25.618;2023-04-30T06:19:40;10.10;;;5.45;;
74415;SDS011;62850;42.428;25.618;2023-04-30T06:22:06;10.60;;;6.90;;
74415;SDS011;62850;42.428;25.618;2023-04-30T06:24:31;8.25;;;5.20;;
74415;SDS011;62850;42.428;25.618;2023-04-30T06:26:56;12.82;;;6.20;;
74415;SDS011;62850;42.428;25.618;2023-04-30T06:29:22;14.65;;;7.32;;
74415;SDS011;62850;42.428;25.618;2023-04-30T06:31:48;11.43;;;5.53;;
74415;SDS011;62850;42.428;25.618;2023-04-30T06:34:15;9.60;;;5.88;;
74415;SDS011;62850;42.428;25.618;2023-04-30T06:36:40;11.05;;;5.15;;
74415;SDS011;62850;42.428;25.618;2023-04-30T06:39:06;8.90;;;4.93;;
74415;SDS011;62850;42.428;25.618;2023-04-30T06:41:31;12.93;;;5.20;;
74415;SDS011;62850;42.428;25.618;2023-04-30T06:43:57;7.75;;;4.80;;
74415;SDS011;62850;42.428;25.618;2023-04-30T06:46:22;7.50;;;4.68;;
74415;SDS011;62850;42.428;25.618;2023-04-30T06:48:48;7.00;;;4.65;;
74415;SDS011;62850;42.428;25.618;2023-04-30T06:51:13;9.35;;;4.97;;
74415;SDS011;62850;42.428;25.618;2023-04-30T06:53:38;7.28;;;5.00;;
74415;SDS011;62850;42.428;25.618;2023-04-30T06:56:04;7.68;;;4.80;;
74415;SDS011;62850;42.428;25.618;2023-04-30T06:58:30;7.40;;;4.50;;
74415;SDS011;62850;42.428;25.618;2023-04-30T07:00:55;9.23;;;5.40;;
74415;SDS011;62850;42.428;25.618;2023-04-30T07:03:21;15.13;;;7.03;;
74415;SDS011;62850;42.428;25.618;2023-04-30T07:05:47;12.25;;;6.95;;
74415;SDS011;62850;42.428;25.618;2023-04-30T07:08:12;68.25;;;29.35;;
74415;SDS011;62850;42.428;25.618;2023-04-30T07:10:39;37.00;;;17.98;;
74415;SDS011;62850;42.428;25.618;2023-04-30T07:13:05;38.20;;;12.10;;
74415;SDS011;62850;42.428;25.618;2023-04-30T07:15:32;44.35;;;15.40;;
74415;SDS011;62850;42.428;25.618;2023-04-30T07:17:57;33.78;;;16.92;;
74415;SDS011;62850;42.428;25.618;2023-04-30T07:20:23;15.57;;;9.18;;
74415;SDS011;62850;42.428;25.618;2023-04-30T07:22:48;13.25;;;7.00;;
74415;SDS011;62850;42.428;25.618;2023-04-30T07:25:14;7.93;;;4.22;;
74415;SDS011;62850;42.428;25.618;2023-04-30T07:27:40;14.40;;;6.38;;
74415;SDS011;62850;42.428;25.618;2023-04-30T07:30:06;20.30;;;7.15;;
74415;SDS011;62850;42.428;25.618;2023-04-30T07:32:35;23.00;;;7.53;;
74415;SDS011;62850;42.428;25.618;2023-04-30T07:35:01;11.85;;;6.13;;
74415;SDS011;62850;42.428;25.618;2023-04-30T07:37:27;8.15;;;3.88;;
74415;SDS011;62850;42.428;25.618;2023-04-30T07:39:53;9.25;;;4.90;;
74415;SDS011;62850;42.428;25.618;2023-04-30T07:42:19;7.13;;;3.78;;
74415;SDS011;62850;42.428;25.618;2023-04-30T07:44:44;5.65;;;3.40;;
74415;SDS011;62850;42.428;25.618;2023-04-30T07:47:10;10.90;;;3.70;;
74415;SDS011;62850;42.428;25.618;2023-04-30T07:49:35;6.93;;;3.22;;
74415;SDS011;62850;42.428;25.618;2023-04-30T07:52:01;5.55;;;3.10;;
74415;SDS011;62850;42.428;25.618;2023-04-30T07:54:27;8.50;;;3.47;;
74415;SDS011;62850;42.428;25.618;2023-04-30T07:56:53;7.20;;;3.53;;
74415;SDS011;62850;42.428;25.618;2023-04-30T07:59:18;7.45;;;3.80;;
74415;SDS011;62850;42.428;25.618;2023-04-30T08:01:45;8.93;;;4.22;;
74415;SDS011;62850;42.428;25.618;2023-04-30T08:04:11;7.22;;;3.80;;
74415;SDS011;62850;42.428;25.618;2023-04-30T08:06:37;7.75;;;3.38;;
74415;SDS011;62850;42.428;25.618;2023-04-30T08:09:02;7.80;;;3.33;;
74415;SDS011;62850;42.428;25.618;2023-04-30T08:11:28;7.10;;;3.33;;
74415;SDS011;62850;42.428;25.618;2023-04-30T08:13:54;9.13;;;3.38;;
74415;SDS011;62850;42.428;25.618;2023-04-30T08:16:19;6.15;;;3.15;;
74415;SDS011;62850;42.428;25.618;2023-04-30T08:18:45;6.88;;;3.05;;
74415;SDS011;62850;42.428;25.618;2023-04-30T08:21:16;7.43;;;3.72;;
74415;SDS011;62850;42.428;25.618;2023-04-30T08:23:42;8.65;;;3.42;;
74415;SDS011;62850;42.428;25.618;2023-04-30T08:26:08;7.30;;;3.20;;
74415;SDS011;62850;42.428;25.618;2023-04-30T08:28:33;6.35;;;3.20;;
74415;SDS011;62850;42.428;25.618;2023-04-30T08:30:59;8.48;;;3.53;;
74415;SDS011;62850;42.428;25.618;2023-04-30T08:33:25;5.95;;;2.90;;
74415;SDS011;62850;42.428;25.618;2023-04-30T08:35:50;5.88;;;2.90;;
74415;SDS011;62850;42.428;25.618;2023-04-30T08:38:15;5.50;;;2.80;;
74415;SDS011;62850;42.428;25.618;2023-04-30T08:40:42;6.50;;;3.10;;
74415;SDS011;62850;42.428;25.618;2023-04-30T08:43:16;7.95;;;3.15;;
74415;SDS011;62850;42.428;25.618;2023-04-30T08:45:42;10.55;;;3.83;;
74415;SDS011;62850;42.428;25.618;2023-04-30T08:48:09;7.45;;;3.35;;
74415;SDS011;62850;42.428;25.618;2023-04-30T08:50:40;5.30;;;2.83;;
74415;SDS011;62850;42.428;25.618;2023-04-30T08:53:06;5.32;;;3.10;;
74415;SDS011;62850;42.428;25.618;2023-04-30T08:55:34;6.78;;;3.15;;
74415;SDS011;62850;42.428;25.618;2023-04-30T08:58:01;6.10;;;3.10;;
74415;SDS011;62850;42.428;25.618;2023-04-30T09:00:26;5.28;;;2.85;;
74415;SDS011;62850;42.428;25.618;2023-04-30T09:02:52;5.40;;;2.97;;
74415;SDS011;62850;42.428;25.618;2023-04-30T09:05:17;8.35;;;3.17;;
74415;SDS011;62850;42.428;25.618;2023-04-30T09:07:43;8.90;;;3.40;;
74415;SDS011;62850;42.428;25.618;2023-04-30T09:10:18;5.38;;;2.95;;
74415;SDS011;62850;42.428;25.618;2023-04-30T09:12:57;6.68;;;2.90;;
74415;SDS011;62850;42.428;25.618;2023-04-30T09:15:27;6.93;;;3.33;;
74415;SDS011;62850;42.428;25.618;2023-04-30T09:18:11;12.45;;;4.40;;
74415;SDS011;62850;42.428;25.618;2023-04-30T09:20:37;11.00;;;3.83;;
74415;SDS011;62850;42.428;25.618;2023-04-30T09:23:09;7.07;;;2.65;;
74415;SDS011;62850;42.428;25.618;2023-04-30T09:25:39;5.57;;;3.20;;
74415;SDS011;62850;42.428;25.618;2023-04-30T09:28:09;7.25;;;3.50;;
74415;SDS011;62850;42.428;25.618;2023-04-30T09:30:35;6.53;;;3.65;;
74415;SDS011;62850;42.428;25.618;2023-04-30T09:33:01;7.90;;;3.20;;
74415;SDS011;62850;42.428;25.618;2023-04-30T09:35:45;9.05;;;3.13;;
74415;SDS011;62850;42.428;25.618;2023-04-30T09:38:29;5.63;;;3.15;;
74415;SDS011;62850;42.428;25.618;2023-04-30T09:40:59;7.82;;;2.92;;
74415;SDS011;62850;42.428;25.618;2023-04-30T09:43:29;7.60;;;3.20;;
74415;SDS011;62850;42.428;25.618;2023-04-30T09:45:56;8.85;;;3.38;;
74415;SDS011;62850;42.428;25.618;2023-04-30T09:48:23;11.63;;;3.60;;
74415;SDS011;62850;42.428;25.618;2023-04-30T09:50:51;5.60;;;3.00;;
74415;SDS011;62850;42.428;25.618;2023-04-30T09:53:17;5.10;;;3.00;;
74415;SDS011;62850;42.428;25.618;2023-04-30T09:55:44;6.15;;;2.88;;
74415;SDS011;62850;42.428;25.618;2023-04-30T09:58:14;6.40;;;3.15;;
74415;SDS011;62850;42.428;25.618;2023-04-30T10:00:41;6.15;;;2.92;;
74415;SDS011;62850;42.428;25.618;2023-04-30T10:03:09;6.35;;;3.15;;
74415;SDS011;62850;42.428;25.618;2023-04-30T10:05:45;5.88;;;3.67;;
74415;SDS011;62850;42.428;25.618;2023-04-30T10:08:14;6.75;;;2.92;;
74415;SDS011;62850;42.428;25.618;2023-04-30T10:10:48;7.53;;;2.92;;
74415;SDS011;62850;42.428;25.618;2023-04-30T10:13:17;5.80;;;3.10;;
74415;SDS011;62850;42.428;25.618;2023-04-30T10:15:47;5.20;;;2.85;;
74415;SDS011;62850;42.428;25.618;2023-04-30T10:18:19;6.57;;;2.65;;
74415;SDS011;62850;42.428;25.618;2023-04-30T10:20:50;8.00;;;3.60;;
74415;SDS011;62850;42.428;25.618;2023-04-30T10:23:18;5.75;;;2.80;;
74415;SDS011;62850;42.428;25.618;2023-04-30T10:25:45;5.65;;;3.00;;
74415;SDS011;62850;42.428;25.618;2023-04-30T10:28:12;6.63;;;3.28;;
74415;SDS011;62850;42.428;25.618;2023-04-30T10:30:38;8.18;;;3.65;;
74415;SDS011;62850;42.428;25.618;2023-04-30T10:35:44;4.93;;;2.83;;
74415;SDS011;62850;42.428;25.618;2023-04-30T10:38:19;5.68;;;2.97;;
74415;SDS011;62850;42.428;25.618;2023-04-30T10:40:47;5.70;;;3.00;;
74415;SDS011;62850;42.428;25.618;2023-04-30T10:43:12;7.85;;;2.90;;
74415;SDS011;62850;42.428;25.618;2023-04-30T10:45:40;5.60;;;3.03;;
74415;SDS011;62850;42.428;25.618;2023-04-30T10:48:10;7.95;;;3.13;;
74415;SDS011;62850;42.428;25.618;2023-04-30T10:50:43;6.25;;;3.00;;
74415;SDS011;62850;42.428;25.618;2023-04-30T10:53:13;7.47;;;3.00;;
74415;SDS011;62850;42.428;25.618;2023-04-30T10:55:48;6.68;;;2.70;;
74415;SDS011;62850;42.428;25.618;2023-04-30T10:58:24;5.60;;;2.50;;
74415;SDS011;62850;42.428;25.618;2023-04-30T11:01:18;6.40;;;2.92;;
74415;SDS011;62850;42.428;25.618;2023-04-30T11:04:06;6.75;;;2.90;;
74415;SDS011;62850;42.428;25.618;2023-04-30T11:09:17;8.10;;;3.67;;
74415;SDS011;62850;42.428;25.618;2023-04-30T11:11:43;9.68;;;3.95;;
74415;SDS011;62850;42.428;25.618;2023-04-30T11:14:10;7.68;;;4.05;;
74415;SDS011;62850;42.428;25.618;2023-04-30T11:16:36;7.60;;;3.38;;
74415;SDS011;62850;42.428;25.618;2023-04-30T11:19:05;7.32;;;4.13;;
74415;SDS011;62850;42.428;25.618;2023-04-30T11:21:33;5.75;;;3.65;;
74415;SDS011;62850;42.428;25.618;2023-04-30T11:24:02;9.20;;;4.43;;
74415;SDS011;62850;42.428;25.618;2023-04-30T11:27:01;8.75;;;4.90;;
74415;SDS011;62850;42.428;25.618;2023-04-30T11:29:32;7.22;;;4.20;;
74415;SDS011;62850;42.428;25.618;2023-04-30T11:32:02;6.10;;;3.90;;
74415;SDS011;62850;42.428;25.618;2023-04-30T11:36:54;6.70;;;4.18;;
74415;SDS011;62850;42.428;25.618;2023-04-30T11:39:23;7.57;;;4.45;;
74415;SDS011;62850;42.428;25.618;2023-04-30T11:41:52;9.02;;;4.88;;
74415;SDS011;62850;42.428;25.618;2023-04-30T11:44:22;10.55;;;5.00;;
74415;SDS011;62850;42.428;25.618;2023-04-30T11:46:50;8.38;;;4.00;;
74415;SDS011;62850;42.428;25.618;2023-04-30T11:49:15;6.10;;;4.20;;
74415;SDS011;62850;42.428;25.618;2023-04-30T11:51:41;6.93;;;3.78;;
74415;SDS011;62850;42.428;25.618;2023-04-30T11:54:07;6.93;;;3.80;;
74415;SDS011;62850;42.428;25.618;2023-04-30T11:56:36;7.50;;;4.13;;
74415;SDS011;62850;42.428;25.618;2023-04-30T11:59:07;7.97;;;3.70;;
74415;SDS011;62850;42.428;25.618;2023-04-30T12:01:34;6.25;;;4.00;;
74415;SDS011;62850;42.428;25.618;2023-04-30T12:04:01;5.32;;;2.95;;
74415;SDS011;62850;42.428;25.618;2023-04-30T12:06:28;6.65;;;3.03;;
74415;SDS011;62850;42.428;25.618;2023-04-30T12:08:55;5.00;;;2.97;;
74415;SDS011;62850;42.428;25.618;2023-04-30T12:11:25;5.07;;;3.15;;
74415;SDS011;62850;42.428;25.618;2023-04-30T12:16:18;4.55;;;3.03;;
74415;SDS011;62850;42.428;25.618;2023-04-30T12:18:44;8.73;;;3.20;;
74415;SDS011;62850;42.428;25.618;2023-04-30T12:21:10;6.63;;;3.05;;
74415;SDS011;62850;42.428;25.618;2023-04-30T12:23:36;4.78;;;2.88;;
74415;SDS011;62850;42.428;25.618;2023-04-30T12:26:02;4.80;;;2.70;;
74415;SDS011;62850;42.428;25.618;2023-04-30T12:28:27;6.85;;;3.33;;
74415;SDS011;62850;42.428;25.618;2023-04-30T12:30:53;7.07;;;3.20;;
74415;SDS011;62850;42.428;25.618;2023-04-30T12:33:18;6.00;;;3.08;;
74415;SDS011;62850;42.428;25.618;2023-04-30T12:35:44;6.50;;;3.20;;
74415;SDS011;62850;42.428;25.618;2023-04-30T12:38:12;5.65;;;2.80;;
74415;SDS011;62850;42.428;25.618;2023-04-30T12:40:45;4.78;;;2.90;;
74415;SDS011;62850;42.428;25.618;2023-04-30T12:43:13;5.50;;;2.67;;
74415;SDS011;62850;42.428;25.618;2023-04-30T12:45:42;5.85;;;3.20;;
74415;SDS011;62850;42.428;25.618;2023-04-30T12:48:26;5.65;;;3.30;;
74415;SDS011;62850;42.428;25.618;2023-04-30T12:50:54;6.05;;;3.30;;
74415;SDS011;62850;42.428;25.618;2023-04-30T12:53:30;6.63;;;3.20;;
74415;SDS011;62850;42.428;25.618;2023-04-30T12:56:11;6.63;;;3.33;;
74415;SDS011;62850;42.428;25.618;2023-04-30T12:58:40;6.32;;;3.50;;
74415;SDS011;62850;42.428;25.618;2023-04-30T13:01:11;6.82;;;3.33;;
74415;SDS011;62850;42.428;25.618;2023-04-30T13:03:37;6.50;;;3.58;;
74415;SDS011;62850;42.428;25.618;2023-04-30T13:06:03;6.47;;;3.40;;
74415;SDS011;62850;42.428;25.618;2023-04-30T13:08:29;5.07;;;3.22;;
74415;SDS011;62850;42.428;25.618;2023-04-30T13:10:54;6.63;;;3.15;;
74415;SDS011;62850;42.428;25.618;2023-04-30T13:13:20;6.85;;;3.15;;
74415;SDS011;62850;42.428;25.618;2023-04-30T13:15:45;7.03;;;3.33;;
74415;SDS011;62850;42.428;25.618;2023-04-30T13:18:11;7.60;;;3.22;;
74415;SDS011;62850;42.428;25.618;2023-04-30T13:20:39;7.85;;;3.65;;
74415;SDS011;62850;42.428;25.618;2023-04-30T13:23:05;6.15;;;3.20;;
74415;SDS011;62850;42.428;25.618;2023-04-30T13:25:31;5.35;;;3.10;;
74415;SDS011;62850;42.428;25.618;2023-04-30T13:27:58;6.65;;;3.00;;
74415;SDS011;62850;42.428;25.618;2023-04-30T13:30:23;5.75;;;3.30;;
74415;SDS011;62850;42.428;25.618;2023-04-30T13:32:49;4.70;;;3.15;;
74415;SDS011;62850;42.428;25.618;2023-04-30T13:35:16;7.20;;;3.22;;
74415;SDS011;62850;42.428;25.618;2023-04-30T13:37:41;5.43;;;3.40;;
74415;SDS011;62850;42.428;25.618;2023-04-30T13:40:07;6.78;;;3.25;;
74415;SDS011;62850;42.428;25.618;2023-04-30T13:42:35;6.93;;;3.30;;
74415;SDS011;62850;42.428;25.618;2023-04-30T13:45:02;6.75;;;3.53;;
74415;SDS011;62850;42.428;25.618;2023-04-30T13:47:28;8.45;;;3.55;;
74415;SDS011;62850;42.428;25.618;2023-04-30T13:49:53;4.70;;;2.88;;
74415;SDS011;62850;42.428;25.618;2023-04-30T13:52:19;6.95;;;3.30;;
74415;SDS011;62850;42.428;25.618;2023-04-30T13:54:44;5.72;;;3.20;;
74415;SDS011;62850;42.428;25.618;2023-04-30T13:57:10;5.55;;;2.90;;
74415;SDS011;62850;42.428;25.618;2023-04-30T13:59:35;5.72;;;3.15;;
74415;SDS011;62850;42.428;25.618;2023-04-30T14:02:01;4.78;;;2.72;;
74415;SDS011;62850;42.428;25.618;2023-04-30T14:04:26;4.93;;;2.97;;
74415;SDS011;62850;42.428;25.618;2023-04-30T14:06:52;5.28;;;2.88;;
74415;SDS011;62850;42.428;25.618;2023-04-30T14:09:20;5.63;;;3.05;;
74415;SDS011;62850;42.428;25.618;2023-04-30T14:11:46;5.43;;;3.00;;
74415;SDS011;62850;42.428;25.618;2023-04-30T14:14:12;5.10;;;2.90;;
74415;SDS011;62850;42.428;25.618;2023-04-30T14:16:37;4.78;;;2.80;;
74415;SDS011;62850;42.428;25.618;2023-04-30T14:19:03;5.45;;;2.90;;
74415;SDS011;62850;42.428;25.618;2023-04-30T14:21:29;6.32;;;2.97;;
74415;SDS011;62850;42.428;25.618;2023-04-30T14:23:55;4.50;;;3.20;;
74415;SDS011;62850;42.428;25.618;2023-04-30T14:26:20;4.75;;;3.03;;
74415;SDS011;62850;42.428;25.618;2023-04-30T14:28:46;4.53;;;2.97;;
74415;SDS011;62850;42.428;25.618;2023-04-30T14:31:12;5.15;;;3.10;;
74415;SDS011;62850;42.428;25.618;2023-04-30T14:33:37;6.18;;;2.90;;
74415;SDS011;62850;42.428;25.618;2023-04-30T14:36:03;6.10;;;2.60;;
74415;SDS011;62850;42.428;25.618;2023-04-30T14:38:30;5.28;;;3.03;;
74415;SDS011;62850;42.428;25.618;2023-04-30T14:40:55;6.07;;;3.58;;
74415;SDS011;62850;42.428;25.618;2023-04-30T14:43:20;5.72;;;3.00;;
74415;SDS011;62850;42.428;25.618;2023-04-30T14:45:46;8.05;;;3.10;;
74415;SDS011;62850;42.428;25.618;2023-04-30T14:48:11;6.15;;;2.50;;
74415;SDS011;62850;42.428;25.618;2023-04-30T14:50:37;5.82;;;2.75;;
74415;SDS011;62850;42.428;25.618;2023-04-30T14:53:03;5.30;;;2.85;;
74415;SDS011;62850;42.428;25.618;2023-04-30T14:55:29;4.60;;;2.70;;
74415;SDS011;62850;42.428;25.618;2023-04-30T14:57:55;7.10;;;2.97;;
74415;SDS011;62850;42.428;25.618;2023-04-30T15:00:21;4.88;;;2.72;;
74415;SDS011;62850;42.428;25.618;2023-04-30T15:02:46;8.52;;;2.58;;